sensor_id;sensor_type;location;lat;lon;timestamp;pressure;altitude;pressure_sealevel;temperature;humidity
6859;BME280;3468;42.824;23.240;2023-08-06T00:00:14;68968.19;;;18.48;100.00
6859;BME280;3468;42.824;23.240;2023-08-06T00:02:41;69010.44;;;18.53;100.00
6859;BME280;3468;42.824;23.240;2023-08-06T00:05:08;68991.94;;;18.57;100.00
6859;BME280;3468;42.824;23.240;2023-08-06T00:07:36;68996.63;;;18.65;100.00
6859;BME280;3468;42.824;23.240;2023-08-06T00:10:03;68992.97;;;18.69;100.00
6859;BME280;3468;42.824;23.240;2023-08-06T00:12:30;68948.53;;;18.26;100.00
6859;BME280;3468;42.824;23.240;2023-08-06T00:14:57;69004.75;;;18.77;100.00
6859;BME280;3468;42.824;23.240;2023-08-06T00:17:23;68859.81;;;18.47;100.00
6859;BME280;3468;42.824;23.240;2023-08-06T00:19:50;68956.03;;;18.13;100.00
6859;BME280;3468;42.824;23.240;2023-08-06T00:22:17;69001.94;;;18.35;100.00
6859;BME280;3468;42.824;23.240;2023-08-06T00:24:45;68934.28;;;18.08;100.00
6859;BME280;3468;42.824;23.240;2023-08-06T00:27:12;68997.19;;;18.42;100.00
6859;BME280;3468;42.824;23.240;2023-08-06T00:29:38;68920.13;;;18.37;100.00
6859;BME280;3468;42.824;23.240;2023-08-06T00:32:05;68984.91;;;18.42;100.00
6859;BME280;3468;42.824;23.240;2023-08-06T00:34:32;68989.09;;;18.55;100.00
6859;BME280;3468;42.824;23.240;2023-08-06T00:36:59;69010.75;;;18.56;100.00
6859;BME280;3468;42.824;23.240;2023-08-06T00:39:26;69028.41;;;18.53;100.00
6859;BME280;3468;42.824;23.240;2023-08-06T00:41:54;68999.97;;;18.60;100.00
6859;BME280;3468;42.824;23.240;2023-08-06T00:44:21;69034.94;;;18.72;100.00
6859;BME280;3468;42.824;23.240;2023-08-06T00:46:47;68979.56;;;18.68;100.00
6859;BME280;3468;42.824;23.240;2023-08-06T00:49:14;69020.72;;;18.77;100.00
6859;BME280;3468;42.824;23.240;2023-08-06T00:51:42;69013.94;;;18.80;100.00
6859;BME280;3468;42.824;23.240;2023-08-06T00:54:09;69002.75;;;18.77;100.00
6859;BME280;3468;42.824;23.240;2023-08-06T00:56:36;69021.63;;;18.80;100.00
6859;BME280;3468;42.824;23.240;2023-08-06T00:59:05;68995.25;;;18.71;100.00
6859;BME280;3468;42.824;23.240;2023-08-06T01:01:32;69027.50;;;18.70;100.00
6859;BME280;3468;42.824;23.240;2023-08-06T01:03:59;68988.63;;;18.63;100.00
6859;BME280;3468;42.824;23.240;2023-08-06T01:06:37;69010.94;;;18.69;100.00
6859;BME280;3468;42.824;23.240;2023-08-06T01:09:13;69027.44;;;18.65;100.00
6859;BME280;3468;42.824;23.240;2023-08-06T01:11:54;69050.91;;;18.72;100.00
6859;BME280;3468;42.824;23.240;2023-08-06T01:14:28;69024.72;;;18.76;100.00
6859;BME280;3468;42.824;23.240;2023-08-06T01:16:58;69040.91;;;18.51;100.00
6859;BME280;3468;42.824;23.240;2023-08-06T01:19:25;69042.94;;;18.74;100.00
6859;BME280;3468;42.824;23.240;2023-08-06T01:21:53;69069.13;;;18.90;100.00
6859;BME280;3468;42.824;23.240;2023-08-06T01:24:20;69056.91;;;18.95;100.00
6859;BME280;3468;42.824;23.240;2023-08-06T01:26:57;69038.16;;;19.01;100.00
6859;BME280;3468;42.824;23.240;2023-08-06T01:29:31;69045.22;;;18.96;100.00
6859;BME280;3468;42.824;23.240;2023-08-06T01:32:01;69045.09;;;19.07;100.00
6859;BME280;3468;42.824;23.240;2023-08-06T01:34:31;69340.03;;;18.80;100.00
6859;BME280;3468;42.824;23.240;2023-08-06T01:37:01;69075.19;;;18.98;100.00
6859;BME280;3468;42.824;23.240;2023-08-06T01:39:29;69039.06;;;18.84;100.00
6859;BME280;3468;42.824;23.240;2023-08-06T01:41:56;69012.50;;;18.81;100.00
6859;BME280;3468;42.824;23.240;2023-08-06T01:44:22;69034.09;;;18.73;100.00
6859;BME280;3468;42.824;23.240;2023-08-06T01:46:49;68980.84;;;18.59;100.00
6859;BME280;3468;42.824;23.240;2023-08-06T01:49:16;69031.16;;;18.66;100.00
6859;BME280;3468;42.824;23.240;2023-08-06T01:51:43;69030.38;;;18.72;100.00
6859;BME280;3468;42.824;23.240;2023-08-06T01:54:11;68997.72;;;18.62;100.00
6859;BME280;3468;42.824;23.240;2023-08-06T01:56:38;69048.59;;;18.70;100.00
6859;BME280;3468;42.824;23.240;2023-08-06T01:59:04;69022.41;;;18.74;100.00
6859;BME280;3468;42.824;23.240;2023-08-06T02:01:31;69023.47;;;18.66;100.00
6859;BME280;3468;42.824;23.240;2023-08-06T02:03:58;69032.56;;;18.90;100.00
6859;BME280;3468;42.824;23.240;2023-08-06T02:06:24;69072.31;;;18.95;100.00
6859;BME280;3468;42.824;23.240;2023-08-06T02:08:51;69197.44;;;18.86;100.00
6859;BME280;3468;42.824;23.240;2023-08-06T02:11:19;69029.53;;;18.98;100.00
6859;BME280;3468;42.824;23.240;2023-08-06T02:13:46;68982.06;;;18.88;100.00
6859;BME280;3468;42.824;23.240;2023-08-06T02:16:13;69089.06;;;19.09;100.00
6859;BME280;3468;42.824;23.240;2023-08-06T02:18:40;69040.75;;;18.81;100.00
6859;BME280;3468;42.824;23.240;2023-08-06T02:21:06;69047.94;;;18.85;100.00
6859;BME280;3468;42.824;23.240;2023-08-06T02:23:33;69077.97;;;18.91;100.00
6859;BME280;3468;42.824;23.240;2023-08-06T02:26:00;69072.06;;;18.97;100.00
6859;BME280;3468;42.824;23.240;2023-08-06T02:28:30;69043.88;;;19.02;100.00
6859;BME280;3468;42.824;23.240;2023-08-06T02:30:57;68919.94;;;18.44;100.00
6859;BME280;3468;42.824;23.240;2023-08-06T02:33:24;69033.31;;;18.79;100.00
6859;BME280;3468;42.824;23.240;2023-08-06T02:35:50;68947.91;;;18.46;100.00
6859;BME280;3468;42.824;23.240;2023-08-06T02:38:17;69054.28;;;18.91;100.00
6859;BME280;3468;42.824;23.240;2023-08-06T02:40:44;69068.53;;;18.90;100.00
6859;BME280;3468;42.824;23.240;2023-08-06T02:43:12;69041.16;;;18.68;100.00
6859;BME280;3468;42.824;23.240;2023-08-06T02:45:40;69003.78;;;18.45;100.00
6859;BME280;3468;42.824;23.240;2023-08-06T02:48:07;68997.34;;;18.55;100.00
6859;BME280;3468;42.824;23.240;2023-08-06T02:50:38;68942.81;;;18.06;100.00
6859;BME280;3468;42.824;23.240;2023-08-06T02:53:05;68964.84;;;18.34;100.00
6859;BME280;3468;42.824;23.240;2023-08-06T02:55:32;68998.34;;;18.43;100.00
6859;BME280;3468;42.824;23.240;2023-08-06T02:58:00;69026.69;;;18.52;100.00
6859;BME280;3468;42.824;23.240;2023-08-06T03:00:26;69003.84;;;18.50;100.00
6859;BME280;3468;42.824;23.240;2023-08-06T03:02:55;69006.69;;;18.48;100.00
6859;BME280;3468;42.824;23.240;2023-08-06T03:05:22;68919.22;;;18.10;100.00
6859;BME280;3468;42.824;23.240;2023-08-06T03:07:48;69057.03;;;18.60;100.00
6859;BME280;3468;42.824;23.240;2023-08-06T03:10:15;68917.00;;;18.61;100.00
6859;BME280;3468;42.824;23.240;2023-08-06T03:12:42;69026.53;;;18.63;100.00
6859;BME280;3468;42.824;23.240;2023-08-06T03:15:09;68962.16;;;18.45;100.00
6859;BME280;3468;42.824;23.240;2023-08-06T03:17:36;69002.66;;;18.68;100.00
6859;BME280;3468;42.824;23.240;2023-08-06T03:20:06;69343.28;;;18.55;100.00
6859;BME280;3468;42.824;23.240;2023-08-06T03:22:32;69258.41;;;18.30;100.00
6859;BME280;3468;42.824;23.240;2023-08-06T03:24:59;69036.50;;;18.60;100.00
6859;BME280;3468;42.824;23.240;2023-08-06T03:27:26;69000.38;;;18.47;100.00
6859;BME280;3468;42.824;23.240;2023-08-06T03:29:53;69000.84;;;18.19;100.00
6859;BME280;3468;42.824;23.240;2023-08-06T03:32:19;68950.63;;;18.35;100.00
6859;BME280;3468;42.824;23.240;2023-08-06T03:34:46;68879.19;;;17.78;100.00
6859;BME280;3468;42.824;23.240;2023-08-06T03:37:14;68983.44;;;18.39;100.00
6859;BME280;3468;42.824;23.240;2023-08-06T03:39:41;68978.78;;;18.30;100.00
6859;BME280;3468;42.824;23.240;2023-08-06T03:42:08;69013.84;;;18.32;100.00
6859;BME280;3468;42.824;23.240;2023-08-06T03:44:34;68962.09;;;18.21;100.00
6859;BME280;3468;42.824;23.240;2023-08-06T03:47:01;68994.63;;;18.22;100.00
6859;BME280;3468;42.824;23.240;2023-08-06T03:49:28;69010.91;;;18.25;100.00
6859;BME280;3468;42.824;23.240;2023-08-06T03:51:54;68959.50;;;17.96;100.00
6859;BME280;3468;42.824;23.240;2023-08-06T03:54:23;68978.72;;;18.26;100.00
6859;BME280;3468;42.824;23.240;2023-08-06T03:56:49;68983.59;;;18.28;100.00
6859;BME280;3468;42.824;23.240;2023-08-06T03:59:16;69016.13;;;18.29;100.00
6859;BME280;3468;42.824;23.240;2023-08-06T04:01:43;68988.47;;;18.30;100.00
6859;BME280;3468;42.824;23.240;2023-08-06T04:04:10;68997.97;;;18.36;100.00
6859;BME280;3468;42.824;23.240;2023-08-06T04:06:36;69026.50;;;18.38;100.00
6859;BME280;3468;42.824;23.240;2023-08-06T04:09:03;68973.44;;;18.37;100.00
6859;BME280;3468;42.824;23.240;2023-08-06T04:11:31;69027.69;;;18.44;100.00
6859;BME280;3468;42.824;23.240;2023-08-06T04:13:58;69019.44;;;18.43;100.00
6859;BME280;3468;42.824;23.240;2023-08-06T04:16:25;69075.19;;;18.54;100.00
6859;BME280;3468;42.824;23.240;2023-08-06T04:18:52;69029.94;;;18.61;100.00
6859;BME280;3468;42.824;23.240;2023-08-06T04:21:20;69069.41;;;18.68;100.00
6859;BME280;3468;42.824;23.240;2023-08-06T04:23:47;69040.63;;;18.72;100.00
6859;BME280;3468;42.824;23.240;2023-08-06T04:26:14;69068.03;;;18.74;100.00
6859;BME280;3468;42.824;23.240;2023-08-06T04:28:42;69060.16;;;18.80;100.00
6859;BME280;3468;42.824;23.240;2023-08-06T04:31:09;69038.63;;;18.29;100.00
6859;BME280;3468;42.824;23.240;2023-08-06T04:33:36;69078.13;;;18.80;100.00
6859;BME280;3468;42.824;23.240;2023-08-06T04:36:03;69076.75;;;18.86;100.00
6859;BME280;3468;42.824;23.240;2023-08-06T04:38:30;69386.66;;;18.57;100.00
6859;BME280;3468;42.824;23.240;2023-08-06T04:40:57;69104.50;;;19.09;100.00
6859;BME280;3468;42.824;23.240;2023-08-06T04:43:24;69105.75;;;19.19;100.00
6859;BME280;3468;42.824;23.240;2023-08-06T04:45:54;69094.50;;;19.32;100.00
6859;BME280;3468;42.824;23.240;2023-08-06T04:48:21;69125.44;;;19.41;100.00
6859;BME280;3468;42.824;23.240;2023-08-06T04:50:49;69133.53;;;19.48;100.00
6859;BME280;3468;42.824;23.240;2023-08-06T04:53:16;69116.75;;;19.53;100.00
6859;BME280;3468;42.824;23.240;2023-08-06T04:55:43;69159.41;;;19.61;100.00
6859;BME280;3468;42.824;23.240;2023-08-06T04:58:10;69134.66;;;19.68;100.00
6859;BME280;3468;42.824;23.240;2023-08-06T05:00:37;69186.13;;;19.73;100.00
6859;BME280;3468;42.824;23.240;2023-08-06T05:03:06;69152.66;;;19.68;100.00
6859;BME280;3468;42.824;23.240;2023-08-06T05:05:33;69180.03;;;19.65;100.00
6859;BME280;3468;42.824;23.240;2023-08-06T05:07:59;69149.25;;;19.70;100.00
6859;BME280;3468;42.824;23.240;2023-08-06T05:10:26;69154.53;;;19.59;100.00
6859;BME280;3468;42.824;23.240;2023-08-06T05:12:53;69180.03;;;19.65;100.00
6859;BME280;3468;42.824;23.240;2023-08-06T05:15:20;69183.59;;;19.77;100.00
6859;BME280;3468;42.824;23.240;2023-08-06T05:17:47;69182.34;;;19.87;100.00
6859;BME280;3468;42.824;23.240;2023-08-06T05:20:15;69206.84;;;20.06;100.00
6859;BME280;3468;42.824;23.240;2023-08-06T05:22:43;69213.31;;;20.20;100.00
6859;BME280;3468;42.824;23.240;2023-08-06T05:25:12;69259.69;;;20.25;100.00
6859;BME280;3468;42.824;23.240;2023-08-06T05:27:39;69238.84;;;20.27;100.00
6859;BME280;3468;42.824;23.240;2023-08-06T05:30:07;69221.66;;;20.25;100.00
6859;BME280;3468;42.824;23.240;2023-08-06T05:32:34;69251.13;;;20.50;100.00
6859;BME280;3468;42.824;23.240;2023-08-06T05:35:00;69280.28;;;20.69;100.00
6859;BME280;3468;42.824;23.240;2023-08-06T05:37:29;69290.09;;;20.77;100.00
6859;BME280;3468;42.824;23.240;2023-08-06T05:39:56;69318.03;;;20.90;100.00
6859;BME280;3468;42.824;23.240;2023-08-06T05:42:23;69309.91;;;21.07;100.00
6859;BME280;3468;42.824;23.240;2023-08-06T05:44:49;69316.47;;;21.30;100.00
6859;BME280;3468;42.824;23.240;2023-08-06T05:47:16;69366.56;;;21.51;100.00
6859;BME280;3468;42.824;23.240;2023-08-06T05:49:44;69442.06;;;22.13;100.00
6859;BME280;3468;42.824;23.240;2023-08-06T05:52:11;69495.72;;;22.66;100.00
6859;BME280;3468;42.824;23.240;2023-08-06T05:54:39;69506.84;;;22.60;100.00
6859;BME280;3468;42.824;23.240;2023-08-06T05:57:06;69571.09;;;23.39;100.00
6859;BME280;3468;42.824;23.240;2023-08-06T05:59:33;69598.25;;;23.53;100.00
6859;BME280;3468;42.824;23.240;2023-08-06T06:02:00;69464.84;;;22.83;100.00
6859;BME280;3468;42.824;23.240;2023-08-06T06:04:28;69557.16;;;23.23;100.00
6859;BME280;3468;42.824;23.240;2023-08-06T06:06:54;69578.59;;;23.12;100.00
6859;BME280;3468;42.824;23.240;2023-08-06T06:09:21;69522.09;;;22.90;100.00
6859;BME280;3468;42.824;23.240;2023-08-06T06:11:49;69545.63;;;23.17;100.00
6859;BME280;3468;42.824;23.240;2023-08-06T06:14:16;69588.13;;;23.47;100.00
6859;BME280;3468;42.824;23.240;2023-08-06T06:16:43;69621.66;;;23.62;100.00
6859;BME280;3468;42.824;23.240;2023-08-06T06:19:10;69670.81;;;23.91;100.00
6859;BME280;3468;42.824;23.240;2023-08-06T06:21:36;69713.31;;;24.11;100.00
6859;BME280;3468;42.824;23.240;2023-08-06T06:24:04;69689.94;;;24.07;100.00
6859;BME280;3468;42.824;23.240;2023-08-06T06:26:31;69629.16;;;23.64;100.00
6859;BME280;3468;42.824;23.240;2023-08-06T06:28:59;69638.59;;;23.90;100.00
6859;BME280;3468;42.824;23.240;2023-08-06T06:31:26;69678.63;;;23.95;100.00
6859;BME280;3468;42.824;23.240;2023-08-06T06:33:52;69677.50;;;23.99;100.00
6859;BME280;3468;42.824;23.240;2023-08-06T06:36:20;69617.69;;;24.05;100.00
6859;BME280;3468;42.824;23.240;2023-08-06T06:38:46;69675.44;;;24.61;100.00
6859;BME280;3468;42.824;23.240;2023-08-06T06:41:14;69814.97;;;25.02;100.00
6859;BME280;3468;42.824;23.240;2023-08-06T06:43:41;69783.41;;;25.20;100.00
6859;BME280;3468;42.824;23.240;2023-08-06T06:46:09;69829.22;;;25.17;100.00
6859;BME280;3468;42.824;23.240;2023-08-06T06:48:36;69697.97;;;24.34;100.00
6859;BME280;3468;42.824;23.240;2023-08-06T06:51:03;69666.88;;;23.72;100.00
6859;BME280;3468;42.824;23.240;2023-08-06T06:53:29;69559.13;;;23.18;100.00
6859;BME280;3468;42.824;23.240;2023-08-06T06:56:00;69607.75;;;23.26;100.00
6859;BME280;3468;42.824;23.240;2023-08-06T06:58:27;69618.59;;;23.46;100.00
6859;BME280;3468;42.824;23.240;2023-08-06T07:00:54;69655.63;;;23.98;100.00
6859;BME280;3468;42.824;23.240;2023-08-06T07:03:22;69730.31;;;24.44;100.00
6859;BME280;3468;42.824;23.240;2023-08-06T07:05:50;69787.31;;;25.05;100.00
6859;BME280;3468;42.824;23.240;2023-08-06T07:08:17;69840.66;;;25.42;98.80
6859;BME280;3468;42.824;23.240;2023-08-06T07:10:43;69861.25;;;25.20;97.30
6859;BME280;3468;42.824;23.240;2023-08-06T07:13:10;69798.94;;;25.15;97.68
6859;BME280;3468;42.824;23.240;2023-08-06T07:15:37;69751.19;;;24.94;98.98
6859;BME280;3468;42.824;23.240;2023-08-06T07:18:04;69841.75;;;25.34;94.44
6859;BME280;3468;42.824;23.240;2023-08-06T07:20:32;69850.09;;;25.34;92.15
6859;BME280;3468;42.824;23.240;2023-08-06T07:23:00;69927.69;;;25.98;92.82
6859;BME280;3468;42.824;23.240;2023-08-06T07:25:27;69973.84;;;26.26;89.86
6859;BME280;3468;42.824;23.240;2023-08-06T07:27:54;69971.25;;;26.26;89.56
6859;BME280;3468;42.824;23.240;2023-08-06T07:30:22;69986.50;;;26.61;91.34
6859;BME280;3468;42.824;23.240;2023-08-06T07:32:48;70054.16;;;26.99;87.56
6859;BME280;3468;42.824;23.240;2023-08-06T07:35:15;70047.47;;;26.96;87.39
6859;BME280;3468;42.824;23.240;2023-08-06T07:37:43;70039.78;;;26.76;84.61
6859;BME280;3468;42.824;23.240;2023-08-06T07:40:11;69947.53;;;26.24;86.07
6859;BME280;3468;42.824;23.240;2023-08-06T07:42:37;69926.69;;;26.19;87.76
6859;BME280;3468;42.824;23.240;2023-08-06T07:45:05;69971.34;;;26.40;89.07
6859;BME280;3468;42.824;23.240;2023-08-06T07:47:32;70026.31;;;26.51;87.53
6859;BME280;3468;42.824;23.240;2023-08-06T07:49:59;70048.72;;;26.72;86.17
6859;BME280;3468;42.824;23.240;2023-08-06T07:52:26;70085.41;;;27.03;82.86
6859;BME280;3468;42.824;23.240;2023-08-06T07:54:54;70116.44;;;27.52;87.67
6859;BME280;3468;42.824;23.240;2023-08-06T07:57:21;70155.88;;;27.63;74.10
6859;BME280;3468;42.824;23.240;2023-08-06T07:59:48;70171.00;;;27.76;71.24
6859;BME280;3468;42.824;23.240;2023-08-06T08:02:15;70240.50;;;28.11;71.45
6859;BME280;3468;42.824;23.240;2023-08-06T08:04:42;70202.00;;;28.16;67.72
6859;BME280;3468;42.824;23.240;2023-08-06T08:07:09;70228.09;;;28.20;68.12
6859;BME280;3468;42.824;23.240;2023-08-06T08:09:36;70208.41;;;28.26;64.96
6859;BME280;3468;42.824;23.240;2023-08-06T08:12:05;70216.91;;;28.39;67.77
6859;BME280;3468;42.824;23.240;2023-08-06T08:14:32;70248.88;;;28.58;63.36
6859;BME280;3468;42.824;23.240;2023-08-06T08:17:02;70230.16;;;28.24;62.82
6859;BME280;3468;42.824;23.240;2023-08-06T08:19:29;70187.06;;;27.92;66.66
6859;BME280;3468;42.824;23.240;2023-08-06T08:21:56;70168.22;;;27.91;65.61
6859;BME280;3468;42.824;23.240;2023-08-06T08:24:23;70194.69;;;28.07;63.71
6859;BME280;3468;42.824;23.240;2023-08-06T08:26:50;70183.69;;;28.07;63.32
6859;BME280;3468;42.824;23.240;2023-08-06T08:29:19;70273.13;;;28.38;62.65
6859;BME280;3468;42.824;23.240;2023-08-06T08:31:46;70303.91;;;28.47;63.73
6859;BME280;3468;42.824;23.240;2023-08-06T08:34:14;70311.38;;;28.77;60.96
6859;BME280;3468;42.824;23.240;2023-08-06T08:36:41;70205.53;;;28.28;63.67
6859;BME280;3468;42.824;23.240;2023-08-06T08:39:08;70219.69;;;28.20;64.08
6859;BME280;3468;42.824;23.240;2023-08-06T08:41:38;70235.94;;;28.25;63.84
6859;BME280;3468;42.824;23.240;2023-08-06T08:44:08;70263.97;;;28.57;62.81
6859;BME280;3468;42.824;23.240;2023-08-06T08:46:40;70310.66;;;28.59;62.20
6859;BME280;3468;42.824;23.240;2023-08-06T08:49:07;70274.91;;;28.44;63.51
6859;BME280;3468;42.824;23.240;2023-08-06T08:51:34;70262.69;;;28.38;64.43
6859;BME280;3468;42.824;23.240;2023-08-06T08:54:03;70183.56;;;27.93;62.95
6859;BME280;3468;42.824;23.240;2023-08-06T08:56:30;70137.00;;;27.54;66.50
6859;BME280;3468;42.824;23.240;2023-08-06T08:58:57;70147.53;;;27.72;64.50
6859;BME280;3468;42.824;23.240;2023-08-06T09:01:25;70197.53;;;28.01;63.75
6859;BME280;3468;42.824;23.240;2023-08-06T09:03:54;70172.91;;;27.58;65.54
6859;BME280;3468;42.824;23.240;2023-08-06T09:06:23;70219.66;;;28.15;64.79
6859;BME280;3468;42.824;23.240;2023-08-06T09:09:01;70167.91;;;27.89;61.75
6859;BME280;3468;42.824;23.240;2023-08-06T09:11:29;70272.56;;;28.42;62.09
6859;BME280;3468;42.824;23.240;2023-08-06T09:14:05;70289.19;;;28.59;63.16
6859;BME280;3468;42.824;23.240;2023-08-06T09:16:34;70576.84;;;28.83;61.44
6859;BME280;3468;42.824;23.240;2023-08-06T09:19:08;70344.06;;;29.10;61.71
6859;BME280;3468;42.824;23.240;2023-08-06T09:21:37;70362.63;;;29.58;59.38
6859;BME280;3468;42.824;23.240;2023-08-06T09:24:07;70512.31;;;30.19;57.29
6859;BME280;3468;42.824;23.240;2023-08-06T09:26:35;70544.94;;;30.33;56.95
6859;BME280;3468;42.824;23.240;2023-08-06T09:29:04;70534.78;;;30.31;56.27
6859;BME280;3468;42.824;23.240;2023-08-06T09:31:33;70550.28;;;30.55;57.93
6859;BME280;3468;42.824;23.240;2023-08-06T09:34:00;70455.16;;;29.84;57.52
6859;BME280;3468;42.824;23.240;2023-08-06T09:36:28;70455.16;;;29.84;57.12
6859;BME280;3468;42.824;23.240;2023-08-06T09:38:56;70501.19;;;30.09;56.41
6859;BME280;3468;42.824;23.240;2023-08-06T09:41:26;70453.13;;;29.38;57.25
6859;BME280;3468;42.824;23.240;2023-08-06T09:43:54;70597.53;;;30.78;57.45
6859;BME280;3468;42.824;23.240;2023-08-06T09:46:20;70561.94;;;30.56;54.30
6859;BME280;3468;42.824;23.240;2023-08-06T09:48:47;70380.16;;;29.82;57.62
6859;BME280;3468;42.824;23.240;2023-08-06T09:51:15;70461.00;;;29.93;55.91
6859;BME280;3468;42.824;23.240;2023-08-06T09:53:45;70567.72;;;30.52;58.07
6859;BME280;3468;42.824;23.240;2023-08-06T09:56:15;70530.44;;;30.39;54.48
6859;BME280;3468;42.824;23.240;2023-08-06T09:58:44;70514.97;;;30.28;54.21
6859;BME280;3468;42.824;23.240;2023-08-06T10:01:12;70485.44;;;29.96;53.80
6859;BME280;3468;42.824;23.240;2023-08-06T10:03:40;70377.03;;;29.35;55.57
6859;BME280;3468;42.824;23.240;2023-08-06T10:06:07;70380.88;;;29.03;56.99
6859;BME280;3468;42.824;23.240;2023-08-06T10:08:34;70304.44;;;28.85;57.24
6859;BME280;3468;42.824;23.240;2023-08-06T10:11:03;70279.56;;;28.48;57.26
6859;BME280;3468;42.824;23.240;2023-08-06T10:13:32;70237.91;;;28.15;57.09
6859;BME280;3468;42.824;23.240;2023-08-06T10:16:00;70165.81;;;27.76;59.24
6859;BME280;3468;42.824;23.240;2023-08-06T10:18:27;70141.44;;;27.69;60.17
6859;BME280;3468;42.824;23.240;2023-08-06T10:20:54;70148.94;;;27.24;60.32
6859;BME280;3468;42.824;23.240;2023-08-06T10:23:33;70073.91;;;27.11;64.58
6859;BME280;3468;42.824;23.240;2023-08-06T10:26:00;70371.53;;;26.86;65.42
6859;BME280;3468;42.824;23.240;2023-08-06T10:28:36;70150.59;;;27.54;62.44
6859;BME280;3468;42.824;23.240;2023-08-06T10:31:03;70074.06;;;27.38;62.37
6859;BME280;3468;42.824;23.240;2023-08-06T10:33:41;70100.66;;;27.30;61.96
6859;BME280;3468;42.824;23.240;2023-08-06T10:36:10;70097.28;;;27.07;61.95
6859;BME280;3468;42.824;23.240;2023-08-06T10:38:44;70075.22;;;26.93;61.38
6859;BME280;3468;42.824;23.240;2023-08-06T10:41:16;70004.78;;;26.70;59.86
6859;BME280;3468;42.824;23.240;2023-08-06T10:43:47;70001.47;;;26.52;60.19
6859;BME280;3468;42.824;23.240;2023-08-06T10:46:22;70018.75;;;26.45;63.20
6859;BME280;3468;42.824;23.240;2023-08-06T10:48:50;69923.88;;;26.30;61.56
6859;BME280;3468;42.824;23.240;2023-08-06T10:51:18;69976.84;;;26.42;62.19
6859;BME280;3468;42.824;23.240;2023-08-06T10:53:46;69989.53;;;26.40;61.04
6859;BME280;3468;42.824;23.240;2023-08-06T10:56:14;69898.31;;;26.09;59.16
6859;BME280;3468;42.824;23.240;2023-08-06T10:58:42;69969.59;;;26.38;57.98
6859;BME280;3468;42.824;23.240;2023-08-06T11:01:11;69990.41;;;26.38;59.85
6859;BME280;3468;42.824;23.240;2023-08-06T11:03:39;70003.03;;;26.69;61.06
6859;BME280;3468;42.824;23.240;2023-08-06T11:06:07;70043.81;;;26.75;59.89
6859;BME280;3468;42.824;23.240;2023-08-06T11:08:35;70040.03;;;26.69;58.84
6859;BME280;3468;42.824;23.240;2023-08-06T11:11:09;70046.75;;;26.82;61.15
6859;BME280;3468;42.824;23.240;2023-08-06T11:13:38;70027.69;;;26.79;57.73
6859;BME280;3468;42.824;23.240;2023-08-06T11:16:06;69948.28;;;26.47;58.32
6859;BME280;3468;42.824;23.240;2023-08-06T11:18:35;70061.31;;;26.90;55.76
6859;BME280;3468;42.824;23.240;2023-08-06T11:21:02;70096.38;;;27.00;54.53
6859;BME280;3468;42.824;23.240;2023-08-06T11:23:30;70094.75;;;27.58;55.68
6859;BME280;3468;42.824;23.240;2023-08-06T11:25:57;70247.56;;;28.30;54.13
6859;BME280;3468;42.824;23.240;2023-08-06T11:28:24;70353.94;;;29.09;53.65
6859;BME280;3468;42.824;23.240;2023-08-06T11:30:53;70441.75;;;29.81;52.03
6859;BME280;3468;42.824;23.240;2023-08-06T11:33:21;70739.34;;;29.85;48.21
6859;BME280;3468;42.824;23.240;2023-08-06T11:35:53;70402.81;;;29.79;48.96
6859;BME280;3468;42.824;23.240;2023-08-06T11:38:21;70438.19;;;29.69;48.94
6859;BME280;3468;42.824;23.240;2023-08-06T11:40:49;70479.50;;;29.78;51.13
6859;BME280;3468;42.824;23.240;2023-08-06T11:43:18;70535.84;;;30.23;51.72
6859;BME280;3468;42.824;23.240;2023-08-06T11:45:46;70574.84;;;30.81;50.01
6859;BME280;3468;42.824;23.240;2023-08-06T11:48:14;70678.81;;;31.42;48.02
6859;BME280;3468;42.824;23.240;2023-08-06T11:50:42;70741.47;;;31.95;47.78
6859;BME280;3468;42.824;23.240;2023-08-06T11:53:12;70821.75;;;32.20;48.83
6859;BME280;3468;42.824;23.240;2023-08-06T11:55:40;70803.69;;;32.27;47.79
6859;BME280;3468;42.824;23.240;2023-08-06T11:58:09;70777.38;;;32.14;46.60
6859;BME280;3468;42.824;23.240;2023-08-06T12:00:37;70687.03;;;31.53;44.98
6859;BME280;3468;42.824;23.240;2023-08-06T12:03:05;70737.50;;;31.67;44.27
6859;BME280;3468;42.824;23.240;2023-08-06T12:05:32;70663.88;;;31.23;44.24
6859;BME280;3468;42.824;23.240;2023-08-06T12:08:01;70575.06;;;30.65;43.93
6859;BME280;3468;42.824;23.240;2023-08-06T12:10:31;70588.75;;;30.66;44.36
6859;BME280;3468;42.824;23.240;2023-08-06T12:12:59;70619.78;;;31.01;44.84
6859;BME280;3468;42.824;23.240;2023-08-06T12:15:28;70674.44;;;31.36;44.17
6859;BME280;3468;42.824;23.240;2023-08-06T12:17:55;70689.78;;;31.80;41.42
6859;BME280;3468;42.824;23.240;2023-08-06T12:20:22;70803.38;;;32.25;41.89
6859;BME280;3468;42.824;23.240;2023-08-06T12:22:49;70789.94;;;32.13;42.09
6859;BME280;3468;42.824;23.240;2023-08-06T12:25:16;70741.34;;;31.77;42.63
6859;BME280;3468;42.824;23.240;2023-08-06T12:27:45;70684.66;;;31.42;41.02
6859;BME280;3468;42.824;23.240;2023-08-06T12:30:13;70551.53;;;30.74;45.66
6859;BME280;3468;42.824;23.240;2023-08-06T12:32:40;70549.00;;;30.32;44.38
6859;BME280;3468;42.824;23.240;2023-08-06T12:35:08;70456.28;;;30.36;46.69
6859;BME280;3468;42.824;23.240;2023-08-06T12:37:35;70483.81;;;30.21;45.35
6859;BME280;3468;42.824;23.240;2023-08-06T12:40:05;70573.66;;;30.75;43.70
6859;BME280;3468;42.824;23.240;2023-08-06T12:42:32;70582.91;;;30.61;44.65
6859;BME280;3468;42.824;23.240;2023-08-06T12:45:01;70481.69;;;30.08;46.64
6859;BME280;3468;42.824;23.240;2023-08-06T12:47:28;70424.38;;;29.89;47.42
6859;BME280;3468;42.824;23.240;2023-08-06T12:49:55;70437.00;;;29.64;47.42
6859;BME280;3468;42.824;23.240;2023-08-06T12:52:22;70451.53;;;29.67;46.96
6859;BME280;3468;42.824;23.240;2023-08-06T12:54:49;70398.03;;;29.53;47.92
6859;BME280;3468;42.824;23.240;2023-08-06T12:57:16;70354.16;;;29.54;48.42
6859;BME280;3468;42.824;23.240;2023-08-06T12:59:44;70398.84;;;29.47;48.07
6859;BME280;3468;42.824;23.240;2023-08-06T13:02:12;70403.53;;;29.51;47.63
6859;BME280;3468;42.824;23.240;2023-08-06T13:04:39;70449.34;;;29.83;48.95
6859;BME280;3468;42.824;23.240;2023-08-06T13:07:06;70565.47;;;30.64;47.69